Terminal Aerodrome Forecast
Issued by NWS

Home | Current Version | Previous Version | Text Only | Print | Product List | Glossary On
Versions: 1 2 3 4 5 6 7 8 9 10 11 12 13 14 15 16 17 18 19 20 21 22 23 24 25 26 27 28 29 30 31 32
000
FTUS43 KILX 310110 AAA
TAFBMI
TAF AMD
KBMI 310110Z 3101/3124 06006KT 2SM BR VCSH SCT002 BKN025
      TEMPO 3101/3103 1/4SM FG BKN002
     FM310300 02011KT 2SM BR VCSH BKN003
     FM310500 35012KT 3SM -RA BR OVC003
     FM311500 35014G19KT 4SM BR VCSH OVC005
     FM312100 34013KT 6SM BR OVC010=

USA.gov is the U.S. government's official web portal to all federal, state and local government web resources and services.